Aktualne dane pomiarowe

Uwaga, wersja testowa! Automatyczne pobieranie danych za pomocą narzędzi lub skryptów to umożliwiających jest zabronione.

Dane meteo z obszaru Polski uzyskane na podstawie depesz SYNOP pobieranych co godzinę z NWS. Najedź myszką na symbol przedstawiony w tabeli, aby uzyskać informacje co do jego znaczenia. Prosimy pamiętać, że to testowa wersja strony, która jeszcze nie jest ukończona. Stworzono również jest krótki FAQ dotyczący korzystania z tej podstrony Anomalie temperatury w chwili obecnej odniesione są do okresu referencyjnego 1951-2016. Okres ten będzie później zmieniony na 1981-2010. Kliknij ikonę aby pobrać plik CSV. Kliknij ikonę aby wygenerować mapę synoptyczną dla danego terminu.

Wybierz Datę:    

        

Leszno (12418)

Dane terminowe dla wybranej stacji. Kliknij datę, aby otrzymać dane z tego terminu dla wszystkich stacji.

TemperaturaZachmurzenieWiatrCiśnienieOpadyPogoda
 Data t td wb tx tn tg rh  Nt Nl Cl Cm Ch ws wd g1 g2 wx mslp ppp ch 24h 12h t ww ww w1 w2  
2019-08-08 23:00:00 14.6 12.6 13.2--- 8819.0--1wx--11012.21001.1 0.9---------
2019-08-08 22:00:00 15.8 12.7 13.7--- 8224.0--1wx--11012.01000.9 1.1---------
2019-08-08 21:00:00 16.6 12.5 13.9--- 7725.0--1wx-1311011.71000.7 1.4---------
2019-08-08 20:00:00 19.1 12.6 15.0--- 6635.0--2wx---1011.11000.2 0.8---------
2019-08-08 19:00:00 21.1 12.0 15.5--- 5623.0--3wx-1331010.6 999.8 0.5---------
2019-08-08 18:00:00 23.1 11.5 16.1 26.6 17.7- 4840.0wxwxwxwx1wx-1011010.1 999.3 -0.1--12wx---
2019-08-08 17:00:00 24.9 10.4 16.3--- 4040.0wxwxwxwx3wx--31010.1 999.4 -0.1---------
2019-08-08 16:00:00 26.0 11.0 17.0--- 3940.0wxwxwxwx4wx---1010.0 999.3 -0.4---------
2019-08-08 15:00:00 25.7 11.1 17.0--- 4040.0wxwxwxwx5wx---1010.1 999.4 -0.7---------
2019-08-08 14:00:00 25.2 11.7 17.0--- 4340.0wxwxwxwx4wx--41010.2 999.5 -0.8---------
2019-08-08 13:00:00 25.8 11.9 17.4--- 4240.0wxwxwxwx5wx101051010.4 999.7 -0.6---------
2019-08-08 12:00:00 24.6 14.1 18.0--- 5240.0wxwxwx5wx-851010.81000.1 -0.1--6wx---
2019-08-08 11:00:00 23.0 13.7 17.1--- 5640.0wxwxwx4wx--41011.11000.3 0.1---------
2019-08-08 10:00:00 23.2 13.4 17.0--- 5440.0wxwxwx4wx-841011.11000.3 0.4---------
2019-08-08 09:00:00 22.2 13.8 16.9--- 5940.0wxwxwx4wx--41011.01000.2 0.8---------
2019-08-08 08:00:00 20.7 14.8 16.8--- 6935.0wxwxwx4wx--41011.11000.2 1.7---------
2019-08-08 07:00:00 19.0 15.3 16.5--- 7925.0wxwxwx5wx--51010.8 999.9 1.8---------
2019-08-08 06:00:00 17.7 15.7 16.3 20.3 15.7 15 8815.0wxwxwxwx5wx--51010.4 999.4 1.7 3.4 3.012wx---- 5.9
2019-08-08 05:00:00 16.6 15.6 15.9--- 9410.0--3wx---1009.5 998.5 1.0---wx-----
2019-08-08 04:00:00 15.7 14.9 15.1--- 956.0--2wx---1009.1 998.1 1.4---wx-----
2019-08-08 03:00:00 16.3 15.5 15.7--- 956.0--2wx--21008.7 997.7 0.9---wx-----
2019-08-08 02:00:00 16.7 15.9 16.1--- 957.0--3wx--31008.5 997.5 1.1---wx-----
2019-08-08 01:00:00 17.1 16.3 16.5--- 957.0--2wx--21007.7 996.7 0.6---wx-----
2019-08-08 00:00:00 17.3 16.3 16.6--- 9412.0--3wx--31007.8 996.8 0.8- 3.06------
2019-08-07 23:00:00 17.8 16.5 16.9--- 9219.0--3wx--31007.3 996.4 1.0---wx-----
2019-08-07 22:00:00 18.3 17.1 17.4--- 9320.0--3wx--31007.0 996.1 0.6---wx-----
2019-08-07 21:00:00 18.6 17.3 17.7--- 9221.0--4wx--41006.9 996.0 0.9---wx-----
2019-08-07 20:00:00 19.3 18.0 18.3--- 9210.0--4wx---1006.3 995.4 0.4---wx-----
2019-08-07 19:00:00 19.3 18.1 18.4--- 938.0--2wx---1006.4 995.5 0.5---wx-----
2019-08-07 18:00:00 20.3 17.7 18.4 28.5 18.6- 8512.0wxwxwxwxwx2wx-1521005.9 995.1 0.8- 0.612wx---
2019-08-07 17:00:00 21.4 16.4 18.0--- 7340.0wxwxwxwxwx2wx--21005.8 995.0 0.5---------
2019-08-07 16:00:00 22.0 16.3 18.2--- 7030.0wxwxwxwxwx5wx-1551005.8 995.0 -0.4---------
2019-08-07 15:00:00 27.2 13.5 18.7--- 4330.0wxwxwxwx5wx--51004.9 994.3 -1.7---wx---
2019-08-07 14:00:00 27.6 14.6 19.4--- 4535.0wxwxwxwxwx3wx---1005.1 994.5 -2.1---------
2019-08-07 13:00:00 28.0 15.0 19.8--- 4535.0wxwxwxwxwx3wx--31005.9 995.4 -1.8---------
2019-08-07 12:00:00 26.8 15.2 19.4--- 4935.0wxwxwxwxwx3wx--31006.6 996.0 -1.0- 0.06------
2019-08-07 11:00:00 25.8 15.2 19.0--- 5235.0wxwxwxwxwx3wx--31007.2 996.6 -0.6---------
2019-08-07 10:00:00 24.8 15.4 18.7--- 5635.0wxwxwxwxwx3wx--31007.9 997.2 0.0---------
2019-08-07 09:00:00 24.5 16.0 18.9--- 5930.0wxwxwxwxwx2wx---1007.7 997.0 -0.1---------
2019-08-07 08:00:00 22.2 16.2 18.2--- 6930.0wx-wxwx1wx--11008.0 997.2 -0.3---------
2019-08-07 07:00:00 19.7 16.2 17.3--- 8030.0wx-wxwx1wx--11008.1 997.2 -0.1---------
2019-08-07 06:00:00 18.6 15.7 16.6 23.6 14.5 13 8330.0wxwxwxwxwx2wx--21008.0 997.1 -0.2 0.3-12wx---- 8.3
2019-08-07 05:00:00 16.7 15.2 15.6--- 9116.0--1wx--11008.5 997.5 -0.1---------
2019-08-07 04:00:00 14.6 13.6 13.9--- 946.0--1wx---1008.4 997.3 -0.6---wx-----
2019-08-07 03:00:00 14.9 13.8 14.1--- 9310.0--1wx--11008.3 997.3 -0.5---------
2019-08-07 02:00:00 15.8 14.8 15.1--- 9418.0--1wx--11008.6 997.6 -0.3---------
2019-08-07 01:00:00 16.1 14.6 15.0--- 9120.0--1wx--11008.9 997.9 0.2---------
2019-08-07 00:00:00 17.5 15.3 15.9--- 8730.0--1wx--11008.8 997.8 0.1--6------
2.1 ms

 

Print Friendly, PDF & Email